»·PEaware :: ASA518 KSEA-KSBA

ASA518 :: KSEA-KSBA

FLIGHT INFORMATION

Flight Status: Arrived
Operator:
Alaska Airlines
More flights by this operator :: More flights under this callsign
Pilot: Oliver L. (19934)
Aircraft: BOEING 737-800
(B738)
More flights by this aircraft type
Origin: KSEA Seattle-Tacoma Intl
United States
Destination: KSBA Santa Barbara Mun
United States
More flights between these airports :: More routes between these airports
Route: +SUMMA1 SUMMA DCT JINMO Q7 AVE DCT GVO DCT HABUT DCT
File this flight plan on PilotEdge
Remarks:
Altitude:
(Current/Filed)
34,000ft
Speed:
(Current/Filed)
300kts
Departed: 01-Sep-18 07:57 PM
Arrived: 01-Sep-18 09:44 PM
Distance/Time
Traveled:
789nm/1:47
Distance/Time
To Go:
Arrived

Flight Plot

Page will automatically refresh every two minutes.

Flight plan parsing failed; only flown route is shown


Map Options




Map Legend


Flown Route
Filed Route
Departure Airport
Arrival Airport
Navaid (VOR, NDB)
Fix

Horizontal Profiles

Position Reports

Time Latitude Longitude Heading Altitude Ground
Speed
01-Sep-18 19:49 47.447736 -122.300894 310 441ft 0kts
01-Sep-18 19:50 47.447736 -122.300894 310 441ft 0kts
01-Sep-18 19:51 47.447736 -122.300894 310 441ft 0kts
01-Sep-18 19:52 47.447699 -122.300830 310 441ft 2kts
01-Sep-18 19:53 47.447442 -122.300147 253 441ft 2kts
01-Sep-18 19:54 47.447673 -122.299848 195 441ft 0kts
01-Sep-18 19:55 47.447673 -122.299848 195 441ft 0kts
01-Sep-18 19:56 47.447673 -122.299848 195 441ft 0kts
01-Sep-18 19:57 47.448042 -122.305265 278 441ft 0kts
01-Sep-18 19:58 47.454109 -122.306194 0 441ft 59kts
01-Sep-18 19:59 47.463581 -122.306339 317 441ft 0kts
01-Sep-18 20:00 47.463738 -122.307057 257 441ft 12kts
01-Sep-18 20:01 47.435243 -122.308048 182 644ft 191kts
01-Sep-18 20:02 47.377913 -122.309335 181 3135ft 237kts
01-Sep-18 20:04 47.300947 -122.309642 180 5743ft 318kts
01-Sep-18 20:05 47.209956 -122.286520 145 8263ft 362kts
01-Sep-18 20:06 47.123477 -122.197972 148 10790ft 389kts
01-Sep-18 20:07 47.020024 -122.148027 166 13294ft 406kts
01-Sep-18 20:08 46.906996 -122.102974 166 15548ft 438kts
01-Sep-18 20:09 46.792825 -122.057694 166 17943ft 453kts
01-Sep-18 20:10 46.669532 -122.008842 167 20438ft 468kts
01-Sep-18 20:11 46.543953 -122.030308 203 22919ft 463kts
01-Sep-18 20:12 46.423972 -122.096174 204 25406ft 463kts
01-Sep-18 20:13 46.296392 -122.105917 174 27884ft 468kts
01-Sep-18 20:14 46.170033 -122.076894 173 30355ft 454kts
01-Sep-18 20:15 46.049077 -122.048070 174 32810ft 430kts
01-Sep-18 20:16 45.933870 -122.020759 174 34114ft 430kts
01-Sep-18 20:17 45.813015 -121.992196 173 34123ft 464kts
01-Sep-18 20:18 45.681720 -121.961289 173 34125ft 498kts
01-Sep-18 20:19 45.540699 -121.928252 173 34125ft 531kts
01-Sep-18 20:20 45.391746 -121.893531 173 34114ft 553kts
01-Sep-18 20:21 45.247213 -121.860012 173 34106ft 518kts
01-Sep-18 20:22 45.104207 -121.827048 173 34092ft 522kts
01-Sep-18 20:23 44.962909 -121.794705 172 34079ft 510kts
01-Sep-18 20:24 44.825056 -121.763150 172 34091ft 510kts
01-Sep-18 20:25 44.682302 -121.730722 171 34099ft 535kts
01-Sep-18 20:26 44.534853 -121.697384 171 34092ft 539kts
01-Sep-18 20:27 44.387326 -121.664206 171 34104ft 539kts
01-Sep-18 20:28 44.239317 -121.630302 171 34117ft 539kts
01-Sep-18 20:29 44.092182 -121.596264 171 34121ft 539kts
01-Sep-18 20:30 43.944565 -121.562284 171 34121ft 539kts
01-Sep-18 20:31 43.799016 -121.528953 171 34119ft 539kts
01-Sep-18 20:32 43.651308 -121.495294 171 34119ft 539kts
01-Sep-18 20:33 43.504799 -121.462067 171 34120ft 539kts
01-Sep-18 20:34 43.357381 -121.428801 171 34120ft 539kts
01-Sep-18 20:35 43.209626 -121.395623 171 34121ft 539kts
01-Sep-18 20:35 43.086827 -121.368173 171 34095ft 539kts
01-Sep-18 20:36 42.940756 -121.335751 171 34074ft 536kts
01-Sep-18 20:38 42.773578 -121.298659 170 34072ft 531kts
01-Sep-18 20:38 42.652213 -121.271912 170 34072ft 531kts
01-Sep-18 20:39 42.506838 -121.240017 170 34073ft 531kts
01-Sep-18 20:40 42.360994 -121.208170 170 34073ft 531kts
01-Sep-18 20:41 42.215886 -121.176631 171 34075ft 532kts
01-Sep-18 20:42 42.070075 -121.145087 171 34079ft 533kts
01-Sep-18 20:43 41.923767 -121.113582 171 34073ft 533kts
01-Sep-18 20:44 41.779492 -121.082657 171 34068ft 534kts
01-Sep-18 20:45 41.633005 -121.051403 171 34064ft 535kts
01-Sep-18 20:46 41.486302 -121.020247 171 34065ft 537kts
01-Sep-18 20:47 41.339016 -120.989110 171 34064ft 539kts
01-Sep-18 20:48 41.191384 -120.958043 171 34064ft 539kts
01-Sep-18 20:49 41.043440 -120.927055 171 34065ft 539kts
01-Sep-18 20:50 40.897374 -120.910018 177 34062ft 538kts
01-Sep-18 20:51 40.750217 -120.898194 177 34056ft 538kts
01-Sep-18 20:52 40.601328 -120.886334 177 34053ft 538kts
01-Sep-18 20:53 40.452119 -120.874508 177 34054ft 538kts
01-Sep-18 20:54 40.303237 -120.862750 177 34055ft 538kts
01-Sep-18 20:55 40.154073 -120.851028 177 34056ft 538kts
01-Sep-18 20:56 40.004920 -120.839365 177 34053ft 538kts
01-Sep-18 20:57 39.859371 -120.828030 176 34078ft 538kts
01-Sep-18 20:58 39.710321 -120.816467 177 34113ft 538kts
01-Sep-18 20:59 39.563289 -120.805119 177 34125ft 538kts
01-Sep-18 21:00 39.414803 -120.793698 177 34128ft 535kts
01-Sep-18 21:01 39.266565 -120.782348 177 34129ft 536kts
01-Sep-18 21:02 39.118839 -120.771078 177 34121ft 536kts
01-Sep-18 21:03 38.970095 -120.759686 178 34064ft 543kts
01-Sep-18 21:04 38.831608 -120.749249 180 33989ft 547kts
01-Sep-18 21:05 38.681758 -120.738039 179 33991ft 548kts
01-Sep-18 21:06 38.529576 -120.726589 179 33983ft 547kts
01-Sep-18 21:07 38.378044 -120.715299 179 33930ft 547kts
01-Sep-18 21:08 38.226297 -120.704017 179 33922ft 548kts
01-Sep-18 21:09 38.074359 -120.692773 179 33922ft 551kts
01-Sep-18 21:10 37.922355 -120.681547 179 33928ft 552kts
01-Sep-18 21:11 37.772291 -120.670531 179 33862ft 551kts
01-Sep-18 21:12 37.619771 -120.659375 180 33840ft 552kts
01-Sep-18 21:13 37.466736 -120.648246 179 33855ft 552kts
01-Sep-18 21:14 37.314557 -120.629635 167 33853ft 557kts
01-Sep-18 21:15 37.167080 -120.573001 164 33853ft 556kts
01-Sep-18 21:16 37.019328 -120.513982 167 33856ft 572kts
01-Sep-18 21:17 36.867625 -120.453967 168 33852ft 589kts
01-Sep-18 21:18 36.711882 -120.392632 166 31850ft 584kts
01-Sep-18 21:19 36.565649 -120.335092 163 29439ft 565kts
01-Sep-18 21:20 36.419594 -120.277846 161 26915ft 537kts
01-Sep-18 21:21 36.282085 -120.224117 159 24430ft 506kts
01-Sep-18 21:22 36.152613 -120.173703 158 22054ft 474kts
01-Sep-18 21:23 36.027779 -120.142346 175 19569ft 454kts
01-Sep-18 21:24 35.907737 -120.138809 174 18871ft 423kts
01-Sep-18 21:25 35.792514 -120.134756 174 18888ft 425kts
01-Sep-18 21:26 35.674768 -120.130624 174 18906ft 424kts
01-Sep-18 21:27 35.556948 -120.126495 174 18793ft 427kts
01-Sep-18 21:28 35.440760 -120.122406 175 16261ft 409kts
01-Sep-18 21:29 35.330851 -120.118550 176 13774ft 389kts
01-Sep-18 21:30 35.225494 -120.114901 177 11268ft 372kts
01-Sep-18 21:31 35.124378 -120.111419 178 9096ft 347kts
01-Sep-18 21:32 35.033431 -120.108320 177 9053ft 306kts
01-Sep-18 21:33 34.944056 -120.105138 178 8564ft 340kts
01-Sep-18 21:34 34.849753 -120.101928 180 6175ft 341kts
01-Sep-18 21:35 34.764717 -120.099029 180 6051ft 276kts
01-Sep-18 21:36 34.689146 -120.096485 180 5729ft 277kts
01-Sep-18 21:37 34.615040 -120.093957 180 4079ft 248kts
01-Sep-18 21:38 34.554956 -120.091845 180 4059ft 184kts
01-Sep-18 21:39 34.503097 -120.090532 181 4047ft 186kts
01-Sep-18 21:40 34.456702 -120.072178 127 4039ft 191kts
01-Sep-18 21:41 34.427208 -120.020485 124 2641ft 175kts
01-Sep-18 21:42 34.425099 -119.964292 89 1805ft 149kts
01-Sep-18 21:43 34.426250 -119.913192 89 1005ft 155kts
01-Sep-18 21:44 34.427247 -119.865871 90 232ft 136kts
01-Sep-18 21:45 34.427048 -119.838477 164 21ft 16kts
01-Sep-18 21:46 34.425196 -119.837424 112 21ft 2kts
01-Sep-18 21:47 34.425159 -119.837318 112 21ft 0kts
01-Sep-18 21:48 34.425159 -119.837318 112 21ft 0kts

Navigation Log

Ident Type
Flight plan parsing failed, navigation log unavailable